sensor_id;sensor_type;location;lat;lon;timestamp;P1;durP1;ratioP1;P2;durP2;ratioP2
14241;SDS011;7205;50.864;12.766;2023-02-01T00:01:05;3.30;;;1.90;;
14241;SDS011;7205;50.864;12.766;2023-02-01T00:03:32;3.23;;;2.10;;
14241;SDS011;7205;50.864;12.766;2023-02-01T00:05:59;3.10;;;2.00;;
14241;SDS011;7205;50.864;12.766;2023-02-01T00:08:27;5.80;;;2.03;;
14241;SDS011;7205;50.864;12.766;2023-02-01T00:11:00;5.37;;;1.63;;
14241;SDS011;7205;50.864;12.766;2023-02-01T00:13:28;2.10;;;1.53;;
14241;SDS011;7205;50.864;12.766;2023-02-01T00:16:03;2.37;;;2.10;;
14241;SDS011;7205;50.864;12.766;2023-02-01T00:18:30;1.53;;;1.43;;
14241;SDS011;7205;50.864;12.766;2023-02-01T00:20:57;3.17;;;1.83;;
14241;SDS011;7205;50.864;12.766;2023-02-01T00:23:24;3.20;;;1.87;;
14241;SDS011;7205;50.864;12.766;2023-02-01T00:25:51;3.47;;;1.60;;
14241;SDS011;7205;50.864;12.766;2023-02-01T00:28:18;3.17;;;1.27;;
14241;SDS011;7205;50.864;12.766;2023-02-01T00:30:45;3.03;;;1.73;;
14241;SDS011;7205;50.864;12.766;2023-02-01T00:33:13;4.47;;;1.90;;
14241;SDS011;7205;50.864;12.766;2023-02-01T00:35:40;5.53;;;1.83;;
14241;SDS011;7205;50.864;12.766;2023-02-01T00:38:07;3.47;;;1.60;;
14241;SDS011;7205;50.864;12.766;2023-02-01T00:40:33;6.53;;;1.83;;
14241;SDS011;7205;50.864;12.766;2023-02-01T00:43:00;2.83;;;1.53;;
14241;SDS011;7205;50.864;12.766;2023-02-01T00:45:27;4.97;;;1.80;;
14241;SDS011;7205;50.864;12.766;2023-02-01T00:47:53;3.83;;;1.33;;
14241;SDS011;7205;50.864;12.766;2023-02-01T00:50:22;4.27;;;1.87;;
14241;SDS011;7205;50.864;12.766;2023-02-01T00:52:48;2.83;;;1.70;;
14241;SDS011;7205;50.864;12.766;2023-02-01T00:55:15;4.50;;;1.63;;
14241;SDS011;7205;50.864;12.766;2023-02-01T00:57:42;4.77;;;2.03;;
14241;SDS011;7205;50.864;12.766;2023-02-01T01:00:09;4.10;;;1.70;;
14241;SDS011;7205;50.864;12.766;2023-02-01T01:02:37;5.00;;;1.87;;
14241;SDS011;7205;50.864;12.766;2023-02-01T01:05:04;5.40;;;2.37;;
14241;SDS011;7205;50.864;12.766;2023-02-01T01:07:32;6.67;;;1.60;;
14241;SDS011;7205;50.864;12.766;2023-02-01T01:10:00;2.97;;;1.93;;
14241;SDS011;7205;50.864;12.766;2023-02-01T01:12:27;2.17;;;1.50;;
14241;SDS011;7205;50.864;12.766;2023-02-01T01:14:53;4.80;;;1.80;;
14241;SDS011;7205;50.864;12.766;2023-02-01T01:17:20;5.20;;;1.63;;
14241;SDS011;7205;50.864;12.766;2023-02-01T01:19:47;6.27;;;1.93;;
14241;SDS011;7205;50.864;12.766;2023-02-01T01:22:14;4.00;;;1.53;;
14241;SDS011;7205;50.864;12.766;2023-02-01T01:24:42;5.23;;;1.60;;
14241;SDS011;7205;50.864;12.766;2023-02-01T01:27:09;3.50;;;1.60;;
14241;SDS011;7205;50.864;12.766;2023-02-01T01:29:35;4.03;;;1.70;;
14241;SDS011;7205;50.864;12.766;2023-02-01T01:32:02;5.80;;;1.87;;
14241;SDS011;7205;50.864;12.766;2023-02-01T01:34:29;6.07;;;1.63;;
14241;SDS011;7205;50.864;12.766;2023-02-01T01:36:56;5.23;;;1.50;;
14241;SDS011;7205;50.864;12.766;2023-02-01T01:39:23;4.93;;;1.80;;
14241;SDS011;7205;50.864;12.766;2023-02-01T01:41:51;3.67;;;1.50;;
14241;SDS011;7205;50.864;12.766;2023-02-01T01:47:28;7.47;;;1.63;;
14241;SDS011;7205;50.864;12.766;2023-02-01T01:50:00;1.60;;;1.30;;
14241;SDS011;7205;50.864;12.766;2023-02-01T01:52:29;5.90;;;1.87;;
14241;SDS011;7205;50.864;12.766;2023-02-01T01:54:56;5.27;;;1.80;;
14241;SDS011;7205;50.864;12.766;2023-02-01T01:57:27;7.90;;;1.70;;
14241;SDS011;7205;50.864;12.766;2023-02-01T01:59:59;4.97;;;1.70;;
14241;SDS011;7205;50.864;12.766;2023-02-01T02:02:38;5.57;;;2.33;;
14241;SDS011;7205;50.864;12.766;2023-02-01T02:05:08;6.37;;;1.80;;
14241;SDS011;7205;50.864;12.766;2023-02-01T02:07:36;8.23;;;1.73;;
14241;SDS011;7205;50.864;12.766;2023-02-01T02:10:07;2.83;;;1.50;;
14241;SDS011;7205;50.864;12.766;2023-02-01T02:12:38;4.70;;;1.70;;
14241;SDS011;7205;50.864;12.766;2023-02-01T02:15:07;8.37;;;2.20;;
14241;SDS011;7205;50.864;12.766;2023-02-01T02:17:36;4.93;;;1.90;;
14241;SDS011;7205;50.864;12.766;2023-02-01T02:26:26;7.67;;;1.80;;
14241;SDS011;7205;50.864;12.766;2023-02-01T02:32:23;5.00;;;2.13;;
14241;SDS011;7205;50.864;12.766;2023-02-01T02:35:26;6.47;;;1.87;;
14241;SDS011;7205;50.864;12.766;2023-02-01T02:38:02;3.57;;;1.50;;
14241;SDS011;7205;50.864;12.766;2023-02-01T02:40:42;6.40;;;1.57;;
14241;SDS011;7205;50.864;12.766;2023-02-01T02:43:17;6.10;;;1.60;;
14241;SDS011;7205;50.864;12.766;2023-02-01T02:46:07;7.20;;;1.50;;
14241;SDS011;7205;50.864;12.766;2023-02-01T02:49:00;5.80;;;1.57;;
14241;SDS011;7205;50.864;12.766;2023-02-01T02:51:35;7.00;;;1.80;;
14241;SDS011;7205;50.864;12.766;2023-02-01T02:54:24;7.30;;;1.67;;
14241;SDS011;7205;50.864;12.766;2023-02-01T02:57:14;3.70;;;1.37;;
14241;SDS011;7205;50.864;12.766;2023-02-01T03:00:02;3.97;;;1.50;;
14241;SDS011;7205;50.864;12.766;2023-02-01T03:02:49;3.63;;;1.60;;
14241;SDS011;7205;50.864;12.766;2023-02-01T03:05:34;4.47;;;1.43;;
14241;SDS011;7205;50.864;12.766;2023-02-01T03:08:03;3.73;;;1.33;;
14241;SDS011;7205;50.864;12.766;2023-02-01T03:13:25;6.10;;;2.00;;
14241;SDS011;7205;50.864;12.766;2023-02-01T03:15:58;5.17;;;1.63;;
14241;SDS011;7205;50.864;12.766;2023-02-01T03:18:30;5.80;;;1.97;;
14241;SDS011;7205;50.864;12.766;2023-02-01T03:21:03;3.47;;;1.27;;
14241;SDS011;7205;50.864;12.766;2023-02-01T03:23:35;4.80;;;1.50;;
14241;SDS011;7205;50.864;12.766;2023-02-01T03:26:04;4.13;;;1.43;;
14241;SDS011;7205;50.864;12.766;2023-02-01T03:28:33;3.60;;;1.40;;
14241;SDS011;7205;50.864;12.766;2023-02-01T03:31:02;5.73;;;1.90;;
14241;SDS011;7205;50.864;12.766;2023-02-01T03:33:29;7.17;;;1.70;;
14241;SDS011;7205;50.864;12.766;2023-02-01T03:36:09;9.10;;;2.00;;
14241;SDS011;7205;50.864;12.766;2023-02-01T03:38:46;5.37;;;1.37;;
14241;SDS011;7205;50.864;12.766;2023-02-01T03:41:23;5.13;;;1.70;;
14241;SDS011;7205;50.864;12.766;2023-02-01T03:43:56;5.17;;;1.60;;
14241;SDS011;7205;50.864;12.766;2023-02-01T03:46:29;7.20;;;1.83;;
14241;SDS011;7205;50.864;12.766;2023-02-01T03:49:01;4.37;;;1.73;;
14241;SDS011;7205;50.864;12.766;2023-02-01T03:51:33;4.33;;;1.70;;
14241;SDS011;7205;50.864;12.766;2023-02-01T03:54:03;4.20;;;1.37;;
14241;SDS011;7205;50.864;12.766;2023-02-01T03:56:32;5.07;;;1.60;;
14241;SDS011;7205;50.864;12.766;2023-02-01T03:59:04;5.87;;;1.60;;
14241;SDS011;7205;50.864;12.766;2023-02-01T04:01:34;6.63;;;1.30;;
14241;SDS011;7205;50.864;12.766;2023-02-01T04:04:01;7.33;;;1.83;;
14241;SDS011;7205;50.864;12.766;2023-02-01T04:06:29;5.80;;;1.70;;
14241;SDS011;7205;50.864;12.766;2023-02-01T04:09:00;6.73;;;1.90;;
14241;SDS011;7205;50.864;12.766;2023-02-01T04:11:29;7.83;;;1.57;;
14241;SDS011;7205;50.864;12.766;2023-02-01T04:13:55;3.30;;;2.00;;
14241;SDS011;7205;50.864;12.766;2023-02-01T04:16:22;3.77;;;1.70;;
14241;SDS011;7205;50.864;12.766;2023-02-01T04:18:49;4.53;;;1.83;;
14241;SDS011;7205;50.864;12.766;2023-02-01T04:21:16;9.13;;;2.17;;
14241;SDS011;7205;50.864;12.766;2023-02-01T04:23:43;7.20;;;1.90;;
14241;SDS011;7205;50.864;12.766;2023-02-01T04:26:09;9.63;;;2.17;;
14241;SDS011;7205;50.864;12.766;2023-02-01T04:28:37;11.27;;;2.00;;
14241;SDS011;7205;50.864;12.766;2023-02-01T04:31:04;7.30;;;1.67;;
14241;SDS011;7205;50.864;12.766;2023-02-01T04:33:31;6.20;;;1.53;;
14241;SDS011;7205;50.864;12.766;2023-02-01T04:35:58;4.10;;;1.57;;
14241;SDS011;7205;50.864;12.766;2023-02-01T04:38:24;6.47;;;2.10;;
14241;SDS011;7205;50.864;12.766;2023-02-01T04:40:52;6.43;;;1.90;;
14241;SDS011;7205;50.864;12.766;2023-02-01T04:43:18;6.90;;;2.50;;
14241;SDS011;7205;50.864;12.766;2023-02-01T04:45:49;5.53;;;1.87;;
14241;SDS011;7205;50.864;12.766;2023-02-01T04:48:17;13.87;;;5.87;;
14241;SDS011;7205;50.864;12.766;2023-02-01T04:50:45;11.03;;;5.30;;
14241;SDS011;7205;50.864;12.766;2023-02-01T04:53:13;9.27;;;3.67;;
14241;SDS011;7205;50.864;12.766;2023-02-01T04:55:40;9.23;;;3.50;;
14241;SDS011;7205;50.864;12.766;2023-02-01T04:58:07;8.17;;;2.70;;
14241;SDS011;7205;50.864;12.766;2023-02-01T05:00:35;8.93;;;2.00;;
14241;SDS011;7205;50.864;12.766;2023-02-01T05:03:03;7.50;;;2.67;;
14241;SDS011;7205;50.864;12.766;2023-02-01T05:05:30;8.83;;;3.70;;
14241;SDS011;7205;50.864;12.766;2023-02-01T05:07:57;6.23;;;2.80;;
14241;SDS011;7205;50.864;12.766;2023-02-01T05:10:24;5.50;;;2.20;;
14241;SDS011;7205;50.864;12.766;2023-02-01T05:12:51;10.43;;;4.40;;
14241;SDS011;7205;50.864;12.766;2023-02-01T05:15:35;6.30;;;3.40;;
14241;SDS011;7205;50.864;12.766;2023-02-01T05:18:03;5.70;;;2.30;;
14241;SDS011;7205;50.864;12.766;2023-02-01T05:20:30;5.57;;;2.30;;
14241;SDS011;7205;50.864;12.766;2023-02-01T05:22:57;5.77;;;2.30;;
14241;SDS011;7205;50.864;12.766;2023-02-01T05:25:24;4.60;;;1.87;;
14241;SDS011;7205;50.864;12.766;2023-02-01T05:27:51;5.23;;;1.90;;
14241;SDS011;7205;50.864;12.766;2023-02-01T05:30:19;4.97;;;1.93;;
14241;SDS011;7205;50.864;12.766;2023-02-01T05:32:48;5.63;;;2.43;;
14241;SDS011;7205;50.864;12.766;2023-02-01T05:35:17;5.23;;;2.40;;
14241;SDS011;7205;50.864;12.766;2023-02-01T05:37:45;5.93;;;2.40;;
14241;SDS011;7205;50.864;12.766;2023-02-01T05:40:11;5.77;;;2.80;;
14241;SDS011;7205;50.864;12.766;2023-02-01T05:42:38;9.33;;;2.80;;
14241;SDS011;7205;50.864;12.766;2023-02-01T05:45:05;8.40;;;2.80;;
14241;SDS011;7205;50.864;12.766;2023-02-01T05:47:33;8.63;;;3.20;;
14241;SDS011;7205;50.864;12.766;2023-02-01T05:50:00;7.63;;;1.90;;
14241;SDS011;7205;50.864;12.766;2023-02-01T05:52:28;6.50;;;2.77;;
14241;SDS011;7205;50.864;12.766;2023-02-01T05:54:55;6.83;;;1.73;;
14241;SDS011;7205;50.864;12.766;2023-02-01T05:57:22;6.87;;;2.17;;
14241;SDS011;7205;50.864;12.766;2023-02-01T05:59:48;4.33;;;1.80;;
14241;SDS011;7205;50.864;12.766;2023-02-01T06:02:15;7.60;;;3.07;;
14241;SDS011;7205;50.864;12.766;2023-02-01T06:04:42;9.60;;;4.77;;
14241;SDS011;7205;50.864;12.766;2023-02-01T06:07:09;6.67;;;3.40;;
14241;SDS011;7205;50.864;12.766;2023-02-01T06:09:38;4.97;;;2.50;;
14241;SDS011;7205;50.864;12.766;2023-02-01T06:12:05;5.53;;;2.73;;
14241;SDS011;7205;50.864;12.766;2023-02-01T06:14:32;5.40;;;2.80;;
14241;SDS011;7205;50.864;12.766;2023-02-01T06:16:59;6.83;;;2.80;;
14241;SDS011;7205;50.864;12.766;2023-02-01T06:19:26;4.93;;;2.33;;
14241;SDS011;7205;50.864;12.766;2023-02-01T06:21:52;8.83;;;4.70;;
14241;SDS011;7205;50.864;12.766;2023-02-01T06:24:19;8.97;;;2.10;;
14241;SDS011;7205;50.864;12.766;2023-02-01T06:26:47;9.13;;;2.87;;
14241;SDS011;7205;50.864;12.766;2023-02-01T06:29:14;5.67;;;2.50;;
14241;SDS011;7205;50.864;12.766;2023-02-01T06:31:41;10.83;;;4.47;;
14241;SDS011;7205;50.864;12.766;2023-02-01T06:34:09;6.03;;;2.83;;
14241;SDS011;7205;50.864;12.766;2023-02-01T06:36:35;5.77;;;2.80;;
14241;SDS011;7205;50.864;12.766;2023-02-01T06:39:03;8.50;;;4.07;;
14241;SDS011;7205;50.864;12.766;2023-02-01T06:41:29;6.77;;;2.50;;
14241;SDS011;7205;50.864;12.766;2023-02-01T06:43:58;6.17;;;2.13;;
14241;SDS011;7205;50.864;12.766;2023-02-01T06:46:24;7.90;;;2.40;;
14241;SDS011;7205;50.864;12.766;2023-02-01T06:48:51;6.83;;;2.53;;
14241;SDS011;7205;50.864;12.766;2023-02-01T06:51:23;6.20;;;2.67;;
14241;SDS011;7205;50.864;12.766;2023-02-01T06:53:51;4.43;;;1.80;;
14241;SDS011;7205;50.864;12.766;2023-02-01T06:56:18;7.63;;;2.47;;
14241;SDS011;7205;50.864;12.766;2023-02-01T06:58:45;6.60;;;2.30;;
14241;SDS011;7205;50.864;12.766;2023-02-01T07:01:13;6.80;;;2.40;;
14241;SDS011;7205;50.864;12.766;2023-02-01T07:03:41;5.40;;;2.10;;
14241;SDS011;7205;50.864;12.766;2023-02-01T07:06:08;6.10;;;2.30;;
14241;SDS011;7205;50.864;12.766;2023-02-01T07:08:36;9.57;;;2.20;;
14241;SDS011;7205;50.864;12.766;2023-02-01T07:11:04;4.80;;;2.20;;
14241;SDS011;7205;50.864;12.766;2023-02-01T07:13:31;8.80;;;2.20;;
14241;SDS011;7205;50.864;12.766;2023-02-01T07:15:58;3.53;;;1.63;;
14241;SDS011;7205;50.864;12.766;2023-02-01T07:18:29;4.83;;;1.97;;
14241;SDS011;7205;50.864;12.766;2023-02-01T07:20:57;7.23;;;2.63;;
14241;SDS011;7205;50.864;12.766;2023-02-01T07:23:24;5.30;;;2.13;;
14241;SDS011;7205;50.864;12.766;2023-02-01T07:25:53;3.57;;;1.93;;
14241;SDS011;7205;50.864;12.766;2023-02-01T07:28:20;5.63;;;1.83;;
14241;SDS011;7205;50.864;12.766;2023-02-01T07:30:47;6.07;;;2.13;;
14241;SDS011;7205;50.864;12.766;2023-02-01T07:33:17;7.77;;;2.30;;
14241;SDS011;7205;50.864;12.766;2023-02-01T07:35:48;5.97;;;2.10;;
14241;SDS011;7205;50.864;12.766;2023-02-01T07:38:16;7.27;;;2.50;;
14241;SDS011;7205;50.864;12.766;2023-02-01T07:40:44;6.80;;;2.60;;
14241;SDS011;7205;50.864;12.766;2023-02-01T07:43:11;5.87;;;2.60;;
14241;SDS011;7205;50.864;12.766;2023-02-01T07:45:38;4.80;;;2.30;;
14241;SDS011;7205;50.864;12.766;2023-02-01T07:48:05;6.80;;;2.33;;
14241;SDS011;7205;50.864;12.766;2023-02-01T07:50:32;5.43;;;2.07;;
14241;SDS011;7205;50.864;12.766;2023-02-01T07:53:00;6.67;;;1.97;;
14241;SDS011;7205;50.864;12.766;2023-02-01T07:55:30;8.53;;;2.33;;
14241;SDS011;7205;50.864;12.766;2023-02-01T07:57:57;9.53;;;2.30;;
14241;SDS011;7205;50.864;12.766;2023-02-01T08:00:25;4.70;;;2.27;;
14241;SDS011;7205;50.864;12.766;2023-02-01T08:03:09;7.17;;;2.23;;
14241;SDS011;7205;50.864;12.766;2023-02-01T08:05:35;4.43;;;2.10;;
14241;SDS011;7205;50.864;12.766;2023-02-01T08:08:04;7.93;;;2.27;;
14241;SDS011;7205;50.864;12.766;2023-02-01T08:10:32;4.30;;;1.80;;
14241;SDS011;7205;50.864;12.766;2023-02-01T08:13:00;4.17;;;1.60;;
14241;SDS011;7205;50.864;12.766;2023-02-01T08:15:27;6.83;;;1.93;;
14241;SDS011;7205;50.864;12.766;2023-02-01T08:17:54;6.60;;;2.00;;
14241;SDS011;7205;50.864;12.766;2023-02-01T08:20:22;5.60;;;2.23;;
14241;SDS011;7205;50.864;12.766;2023-02-01T08:22:50;5.70;;;2.10;;
14241;SDS011;7205;50.864;12.766;2023-02-01T08:25:18;8.83;;;2.57;;
14241;SDS011;7205;50.864;12.766;2023-02-01T08:27:45;6.80;;;2.10;;
14241;SDS011;7205;50.864;12.766;2023-02-01T08:30:12;5.67;;;1.90;;
14241;SDS011;7205;50.864;12.766;2023-02-01T08:32:39;5.50;;;1.83;;
14241;SDS011;7205;50.864;12.766;2023-02-01T08:35:06;3.87;;;1.43;;
14241;SDS011;7205;50.864;12.766;2023-02-01T08:37:34;5.87;;;1.60;;
14241;SDS011;7205;50.864;12.766;2023-02-01T08:40:01;9.20;;;1.73;;
14241;SDS011;7205;50.864;12.766;2023-02-01T08:42:30;7.53;;;1.93;;
14241;SDS011;7205;50.864;12.766;2023-02-01T08:45:14;3.27;;;1.50;;
14241;SDS011;7205;50.864;12.766;2023-02-01T08:47:41;2.40;;;1.10;;
14241;SDS011;7205;50.864;12.766;2023-02-01T08:50:08;4.73;;;1.53;;
14241;SDS011;7205;50.864;12.766;2023-02-01T08:52:36;4.20;;;1.60;;
14241;SDS011;7205;50.864;12.766;2023-02-01T08:55:03;5.43;;;1.90;;
14241;SDS011;7205;50.864;12.766;2023-02-01T08:57:32;8.07;;;1.90;;
14241;SDS011;7205;50.864;12.766;2023-02-01T08:59:59;4.87;;;1.60;;
14241;SDS011;7205;50.864;12.766;2023-02-01T09:02:26;7.33;;;2.10;;
14241;SDS011;7205;50.864;12.766;2023-02-01T09:04:53;7.40;;;1.80;;
14241;SDS011;7205;50.864;12.766;2023-02-01T09:07:22;8.00;;;2.00;;
14241;SDS011;7205;50.864;12.766;2023-02-01T09:09:48;7.13;;;2.20;;
14241;SDS011;7205;50.864;12.766;2023-02-01T09:12:15;2.87;;;1.60;;
14241;SDS011;7205;50.864;12.766;2023-02-01T09:14:43;6.67;;;2.00;;
14241;SDS011;7205;50.864;12.766;2023-02-01T09:17:10;4.70;;;2.00;;
14241;SDS011;7205;50.864;12.766;2023-02-01T09:19:38;10.33;;;2.97;;
14241;SDS011;7205;50.864;12.766;2023-02-01T09:22:05;8.67;;;1.93;;
14241;SDS011;7205;50.864;12.766;2023-02-01T09:24:32;4.40;;;2.00;;
14241;SDS011;7205;50.864;12.766;2023-02-01T09:26:58;6.27;;;2.10;;
14241;SDS011;7205;50.864;12.766;2023-02-01T09:29:25;5.43;;;1.73;;
14241;SDS011;7205;50.864;12.766;2023-02-01T09:31:53;4.17;;;1.50;;
14241;SDS011;7205;50.864;12.766;2023-02-01T09:34:20;3.43;;;1.87;;
14241;SDS011;7205;50.864;12.766;2023-02-01T09:36:47;6.07;;;2.23;;
14241;SDS011;7205;50.864;12.766;2023-02-01T09:39:14;3.10;;;1.20;;
14241;SDS011;7205;50.864;12.766;2023-02-01T09:41:42;4.80;;;2.03;;
14241;SDS011;7205;50.864;12.766;2023-02-01T09:44:31;5.97;;;1.90;;
14241;SDS011;7205;50.864;12.766;2023-02-01T09:47:14;5.20;;;1.63;;
14241;SDS011;7205;50.864;12.766;2023-02-01T09:49:45;4.70;;;1.90;;
14241;SDS011;7205;50.864;12.766;2023-02-01T09:52:19;1.90;;;1.40;;
14241;SDS011;7205;50.864;12.766;2023-02-01T09:54:53;4.07;;;1.93;;
14241;SDS011;7205;50.864;12.766;2023-02-01T09:57:28;5.10;;;2.40;;
14241;SDS011;7205;50.864;12.766;2023-02-01T10:00:06;4.50;;;1.80;;
14241;SDS011;7205;50.864;12.766;2023-02-01T10:02:41;2.43;;;1.60;;
14241;SDS011;7205;50.864;12.766;2023-02-01T10:05:12;5.43;;;2.03;;
14241;SDS011;7205;50.864;12.766;2023-02-01T10:07:42;2.97;;;1.50;;
14241;SDS011;7205;50.864;12.766;2023-02-01T10:10:23;6.43;;;2.03;;
14241;SDS011;7205;50.864;12.766;2023-02-01T10:13:09;5.23;;;2.37;;
14241;SDS011;7205;50.864;12.766;2023-02-01T10:16:12;2.97;;;1.70;;
14241;SDS011;7205;50.864;12.766;2023-02-01T10:21:51;3.33;;;1.30;;
14241;SDS011;7205;50.864;12.766;2023-02-01T10:24:34;3.87;;;1.57;;
14241;SDS011;7205;50.864;12.766;2023-02-01T10:27:09;7.77;;;1.73;;
14241;SDS011;7205;50.864;12.766;2023-02-01T10:29:40;3.17;;;1.60;;
14241;SDS011;7205;50.864;12.766;2023-02-01T10:32:10;2.63;;;1.70;;
14241;SDS011;7205;50.864;12.766;2023-02-01T10:34:41;6.37;;;1.40;;
14241;SDS011;7205;50.864;12.766;2023-02-01T10:37:14;1.63;;;1.10;;
14241;SDS011;7205;50.864;12.766;2023-02-01T10:39:46;6.10;;;1.60;;
14241;SDS011;7205;50.864;12.766;2023-02-01T10:42:14;5.37;;;1.63;;
14241;SDS011;7205;50.864;12.766;2023-02-01T10:44:42;2.23;;;1.20;;
14241;SDS011;7205;50.864;12.766;2023-02-01T10:47:13;5.60;;;1.87;;
14241;SDS011;7205;50.864;12.766;2023-02-01T10:49:43;4.20;;;1.57;;
14241;SDS011;7205;50.864;12.766;2023-02-01T10:52:17;3.10;;;1.10;;
14241;SDS011;7205;50.864;12.766;2023-02-01T10:54:47;2.47;;;1.30;;
14241;SDS011;7205;50.864;12.766;2023-02-01T10:57:19;3.10;;;0.90;;
14241;SDS011;7205;50.864;12.766;2023-02-01T10:59:50;2.97;;;1.33;;
14241;SDS011;7205;50.864;12.766;2023-02-01T11:02:20;7.00;;;1.10;;
14241;SDS011;7205;50.864;12.766;2023-02-01T11:04:59;4.83;;;1.23;;
14241;SDS011;7205;50.864;12.766;2023-02-01T11:07:27;3.97;;;1.50;;
14241;SDS011;7205;50.864;12.766;2023-02-01T11:09:56;1.90;;;0.93;;
14241;SDS011;7205;50.864;12.766;2023-02-01T11:12:28;2.00;;;1.37;;
14241;SDS011;7205;50.864;12.766;2023-02-01T11:14:57;3.07;;;1.43;;
14241;SDS011;7205;50.864;12.766;2023-02-01T11:17:28;4.90;;;1.20;;
14241;SDS011;7205;50.864;12.766;2023-02-01T11:20:04;3.27;;;1.40;;
14241;SDS011;7205;50.864;12.766;2023-02-01T11:22:38;1.77;;;0.97;;
14241;SDS011;7205;50.864;12.766;2023-02-01T11:25:13;1.70;;;1.20;;
14241;SDS011;7205;50.864;12.766;2023-02-01T11:27:42;7.50;;;1.53;;
14241;SDS011;7205;50.864;12.766;2023-02-01T11:30:13;1.80;;;1.33;;
14241;SDS011;7205;50.864;12.766;2023-02-01T11:32:42;7.27;;;1.80;;
14241;SDS011;7205;50.864;12.766;2023-02-01T11:35:13;5.63;;;1.40;;
14241;SDS011;7205;50.864;12.766;2023-02-01T11:37:44;4.10;;;1.70;;
14241;SDS011;7205;50.864;12.766;2023-02-01T11:40:23;3.30;;;1.03;;
14241;SDS011;7205;50.864;12.766;2023-02-01T11:42:53;5.90;;;1.30;;
14241;SDS011;7205;50.864;12.766;2023-02-01T11:45:24;6.70;;;1.23;;
14241;SDS011;7205;50.864;12.766;2023-02-01T11:47:53;6.10;;;1.43;;
14241;SDS011;7205;50.864;12.766;2023-02-01T11:50:25;4.40;;;1.50;;
14241;SDS011;7205;50.864;12.766;2023-02-01T11:53:01;4.20;;;1.40;;
14241;SDS011;7205;50.864;12.766;2023-02-01T11:55:50;1.97;;;1.13;;
14241;SDS011;7205;50.864;12.766;2023-02-01T11:58:31;2.87;;;1.30;;
14241;SDS011;7205;50.864;12.766;2023-02-01T12:01:19;2.83;;;1.53;;
14241;SDS011;7205;50.864;12.766;2023-02-01T12:04:18;3.77;;;1.13;;
14241;SDS011;7205;50.864;12.766;2023-02-01T12:07:16;1.67;;;1.00;;
14241;SDS011;7205;50.864;12.766;2023-02-01T12:09:59;3.00;;;1.30;;
14241;SDS011;7205;50.864;12.766;2023-02-01T12:12:39;3.17;;;1.30;;
14241;SDS011;7205;50.864;12.766;2023-02-01T12:15:21;3.83;;;1.97;;
14241;SDS011;7205;50.864;12.766;2023-02-01T12:17:59;3.70;;;1.20;;
14241;SDS011;7205;50.864;12.766;2023-02-01T12:20:55;2.87;;;0.90;;
14241;SDS011;7205;50.864;12.766;2023-02-01T12:23:36;3.90;;;1.23;;
14241;SDS011;7205;50.864;12.766;2023-02-01T12:26:20;4.33;;;1.43;;
14241;SDS011;7205;50.864;12.766;2023-02-01T12:29:11;3.70;;;1.40;;
14241;SDS011;7205;50.864;12.766;2023-02-01T12:31:52;3.10;;;1.20;;
14241;SDS011;7205;50.864;12.766;2023-02-01T12:34:39;4.00;;;1.20;;
14241;SDS011;7205;50.864;12.766;2023-02-01T12:37:26;2.30;;;1.27;;
14241;SDS011;7205;50.864;12.766;2023-02-01T12:40:10;2.37;;;1.00;;
14241;SDS011;7205;50.864;12.766;2023-02-01T12:42:53;4.50;;;1.53;;
14241;SDS011;7205;50.864;12.766;2023-02-01T12:45:30;4.50;;;1.20;;
14241;SDS011;7205;50.864;12.766;2023-02-01T12:48:00;2.47;;;1.27;;
14241;SDS011;7205;50.864;12.766;2023-02-01T12:50:41;2.93;;;1.10;;
14241;SDS011;7205;50.864;12.766;2023-02-01T12:53:12;3.93;;;0.80;;
14241;SDS011;7205;50.864;12.766;2023-02-01T12:55:49;3.43;;;1.00;;
14241;SDS011;7205;50.864;12.766;2023-02-01T12:58:20;2.37;;;1.23;;
14241;SDS011;7205;50.864;12.766;2023-02-01T13:00:51;3.87;;;1.03;;
14241;SDS011;7205;50.864;12.766;2023-02-01T13:03:28;2.57;;;0.90;;
14241;SDS011;7205;50.864;12.766;2023-02-01T13:06:02;2.57;;;1.00;;
14241;SDS011;7205;50.864;12.766;2023-02-01T13:08:36;3.57;;;1.40;;
14241;SDS011;7205;50.864;12.766;2023-02-01T13:11:11;4.97;;;1.47;;
14241;SDS011;7205;50.864;12.766;2023-02-01T13:13:45;4.17;;;1.13;;
14241;SDS011;7205;50.864;12.766;2023-02-01T13:16:21;3.60;;;1.23;;
14241;SDS011;7205;50.864;12.766;2023-02-01T13:18:56;2.67;;;1.37;;
14241;SDS011;7205;50.864;12.766;2023-02-01T13:21:30;2.17;;;1.20;;
14241;SDS011;7205;50.864;12.766;2023-02-01T13:23:59;6.43;;;1.97;;
14241;SDS011;7205;50.864;12.766;2023-02-01T13:26:27;6.00;;;1.50;;
14241;SDS011;7205;50.864;12.766;2023-02-01T13:28:55;3.83;;;1.40;;
14241;SDS011;7205;50.864;12.766;2023-02-01T13:31:33;4.93;;;1.60;;
14241;SDS011;7205;50.864;12.766;2023-02-01T13:37:26;2.83;;;1.47;;
14241;SDS011;7205;50.864;12.766;2023-02-01T13:40:09;4.30;;;1.33;;
14241;SDS011;7205;50.864;12.766;2023-02-01T13:42:47;4.50;;;1.30;;
14241;SDS011;7205;50.864;12.766;2023-02-01T13:45:17;2.27;;;1.20;;
14241;SDS011;7205;50.864;12.766;2023-02-01T13:47:48;4.33;;;1.50;;
14241;SDS011;7205;50.864;12.766;2023-02-01T13:50:21;4.30;;;1.50;;
14241;SDS011;7205;50.864;12.766;2023-02-01T13:52:52;2.30;;;1.20;;
14241;SDS011;7205;50.864;12.766;2023-02-01T13:55:31;3.73;;;1.53;;
14241;SDS011;7205;50.864;12.766;2023-02-01T13:58:02;2.47;;;1.20;;
14241;SDS011;7205;50.864;12.766;2023-02-01T14:00:33;4.37;;;1.30;;
14241;SDS011;7205;50.864;12.766;2023-02-01T14:03:02;4.73;;;1.77;;
14241;SDS011;7205;50.864;12.766;2023-02-01T14:08:41;4.17;;;1.90;;
14241;SDS011;7205;50.864;12.766;2023-02-01T14:11:32;4.53;;;1.87;;
14241;SDS011;7205;50.864;12.766;2023-02-01T14:26:05;5.90;;;1.93;;
14241;SDS011;7205;50.864;12.766;2023-02-01T14:28:39;4.93;;;1.60;;
14241;SDS011;7205;50.864;12.766;2023-02-01T14:34:16;3.07;;;1.27;;
14241;SDS011;7205;50.864;12.766;2023-02-01T14:36:48;5.93;;;1.90;;
14241;SDS011;7205;50.864;12.766;2023-02-01T14:39:19;4.27;;;1.80;;
14241;SDS011;7205;50.864;12.766;2023-02-01T14:41:48;3.93;;;1.63;;
14241;SDS011;7205;50.864;12.766;2023-02-01T14:44:31;4.00;;;1.93;;
14241;SDS011;7205;50.864;12.766;2023-02-01T14:47:06;3.80;;;1.70;;
14241;SDS011;7205;50.864;12.766;2023-02-01T14:49:54;5.50;;;2.20;;
14241;SDS011;7205;50.864;12.766;2023-02-01T14:52:23;2.73;;;1.90;;
14241;SDS011;7205;50.864;12.766;2023-02-01T14:54:59;5.67;;;2.03;;
14241;SDS011;7205;50.864;12.766;2023-02-01T14:57:30;6.37;;;2.20;;
14241;SDS011;7205;50.864;12.766;2023-02-01T15:00:05;9.13;;;2.10;;
14241;SDS011;7205;50.864;12.766;2023-02-01T15:02:36;4.30;;;2.20;;
14241;SDS011;7205;50.864;12.766;2023-02-01T15:05:10;4.50;;;1.93;;
14241;SDS011;7205;50.864;12.766;2023-02-01T15:07:49;3.93;;;1.53;;
14241;SDS011;7205;50.864;12.766;2023-02-01T15:10:17;4.20;;;2.13;;
14241;SDS011;7205;50.864;12.766;2023-02-01T15:12:44;6.50;;;2.10;;
14241;SDS011;7205;50.864;12.766;2023-02-01T15:15:15;4.13;;;1.60;;
14241;SDS011;7205;50.864;12.766;2023-02-01T15:17:50;4.43;;;1.67;;
14241;SDS011;7205;50.864;12.766;2023-02-01T15:20:19;6.93;;;2.00;;
14241;SDS011;7205;50.864;12.766;2023-02-01T15:22:52;5.67;;;2.20;;
14241;SDS011;7205;50.864;12.766;2023-02-01T15:25:21;6.17;;;2.20;;
14241;SDS011;7205;50.864;12.766;2023-02-01T15:27:49;7.17;;;2.07;;
14241;SDS011;7205;50.864;12.766;2023-02-01T15:30:17;4.07;;;1.60;;
14241;SDS011;7205;50.864;12.766;2023-02-01T15:32:45;4.07;;;2.03;;
14241;SDS011;7205;50.864;12.766;2023-02-01T15:40:55;2.00;;;1.67;;
14241;SDS011;7205;50.864;12.766;2023-02-01T15:43:24;5.33;;;2.43;;
14241;SDS011;7205;50.864;12.766;2023-02-01T15:45:52;4.27;;;2.00;;
14241;SDS011;7205;50.864;12.766;2023-02-01T15:48:23;4.97;;;1.90;;
14241;SDS011;7205;50.864;12.766;2023-02-01T15:50:54;3.77;;;1.90;;
14241;SDS011;7205;50.864;12.766;2023-02-01T15:53:22;3.07;;;2.10;;
14241;SDS011;7205;50.864;12.766;2023-02-01T15:55:56;3.60;;;1.10;;
14241;SDS011;7205;50.864;12.766;2023-02-01T15:58:25;4.00;;;1.80;;